| time (UTC) | temp F | wind direction | speed MPH | gust MPH | rain 1hr in | rain 24hr in | rain mn in | humidity % | barometer mb |
| 20260906090104 | 91 | 45 | 10.0 | 10.0 | 0.00 | 0.00 | 0.00 | 32 | 1019.2 |
| 20260906085603 | 90 | 110 | 6.0 | 12.0 | 0.00 | 0.00 | 0.00 | 33 | 1019.3 |
| 20260906085104 | 90 | 122 | 9.0 | 10.0 | 0.00 | 0.00 | 0.00 | 34 | 1019.3 |
| 20260906084603 | 91 | 89 | 7.0 | 10.0 | 0.00 | 0.00 | 0.00 | 33 | 1019.2 |
| 20260906084103 | 90 | 95 | 6.0 | 12.0 | 0.00 | 0.00 | 0.00 | 33 | 1019.2 |
| 20260906083603 | 91 | 102 | 7.0 | 9.0 | 0.00 | 0.00 | 0.00 | 33 | 1019.2 |
| 20260906082603 | 90 | 84 | 6.0 | 10.0 | 0.00 | 0.00 | 0.00 | 32 | 1019.3 |
| 20260906082103 | 91 | 94 | 5.0 | 10.0 | 0.00 | 0.00 | 0.00 | 31 | 1019.3 |
| 20260906081603 | 91 | 66 | 6.0 | 9.0 | 0.00 | 0.00 | 0.00 | 32 | 1019.3 |
| 20260906081103 | 91 | 99 | 8.0 | 10.0 | 0.00 | 0.00 | 0.00 | 31 | 1019.4 |
| 20260906080104 | 91 | 103 | 6.0 | 9.0 | 0.00 | 0.00 | 0.00 | 32 | 1019.3 |
| 20260906075103 | 89 | 53 | 9.0 | 10.0 | 0.00 | 0.00 | 0.00 | 37 | 1019.2 |
| 20260906074603 | 89 | 70 | 7.0 | 12.0 | 0.00 | 0.00 | 0.00 | 32 | 1019.3 |
| 20260906073603 | 89 | 112 | 9.0 | 13.0 | 0.00 | 0.00 | 0.00 | 35 | 1019.1 |
| 20260906072603 | 90 | 117 | 8.0 | 10.0 | 0.00 | 0.00 | 0.00 | 31 | 1019.1 |
| 20260906072103 | 90 | 94 | 7.0 | 10.0 | 0.00 | 0.00 | 0.00 | 31 | 1018.9 |
| 20260906071603 | 90 | 90 | 8.0 | 12.0 | 0.00 | 0.00 | 0.00 | 31 | 1018.9 |
| 20260906071103 | 91 | 45 | 6.0 | 8.0 | 0.00 | 0.00 | 0.00 | 30 | 1018.9 |
| 20260906070104 | 90 | 30 | 7.0 | 9.0 | 0.00 | 0.00 | 0.00 | 31 | 1018.8 |
| 20260906065103 | 90 | 56 | 5.0 | 8.0 | 0.00 | 0.00 | 0.00 | 31 | 1018.7 |
| 20260906064603 | 89 | 45 | 6.0 | 9.0 | 0.00 | 0.00 | 0.00 | 31 | 1018.6 |
| 20260906064103 | 88 | 112 | 6.0 | 8.0 | 0.00 | 0.00 | 0.00 | 33 | 1018.6 |
| 20260906063603 | 87 | 127 | 5.0 | 8.0 | 0.00 | 0.00 | 0.00 | 33 | 1018.5 |
| 20260906063103 | 88 | 77 | 8.0 | 9.0 | 0.00 | 0.00 | 0.00 | 31 | 1018.5 |
| 20260906062603 | 89 | 91 | 6.0 | 10.0 | 0.00 | 0.00 | 0.00 | 30 | 1018.5 |
| 20260906062103 | 89 | 32 | 7.0 | 9.0 | 0.00 | 0.00 | 0.00 | 31 | 1018.4 |
| 20260906061104 | 87 | 46 | 4.0 | 6.0 | 0.00 | 0.00 | 0.00 | 33 | 1018.2 |
| 20260906060603 | 87 | 123 | 4.0 | 7.0 | 0.00 | 0.00 | 0.00 | 33 | 1018.2 |
| 20260906060104 | 88 | 102 | 4.0 | 6.0 | 0.00 | 0.00 | 0.00 | 32 | 1018.2 |
| 20260906055104 | 89 | 188 | 0.0 | 2.0 | 0.00 | 0.00 | 0.00 | 31 | 1018.2 |
| 20260906054603 | 85 | 126 | 3.0 | 5.0 | 0.00 | 0.00 | 0.00 | 35 | 1018.2 |
| 20260906054103 | 87 | 225 | 5.0 | 6.0 | 0.00 | 0.00 | 0.00 | 34 | 1018.2 |
| 20260906053603 | 87 | 270 | 3.0 | 5.0 | 0.00 | 0.00 | 0.00 | 33 | 1018.1 |
| 20260906052603 | 86 | 112 | 1.0 | 5.0 | 0.00 | 0.00 | 0.00 | 34 | 1018.1 |
| 20260906052104 | 86 | 270 | 3.0 | 5.0 | 0.00 | 0.00 | 0.00 | 34 | 1018.1 |
| 20260906051603 | 86 | 276 | 4.0 | 5.0 | 0.00 | 0.00 | 0.00 | 35 | 1018.1 |
| 20260906051104 | 86 | 270 | 3.0 | 3.0 | 0.00 | 0.00 | 0.00 | 34 | 1018.2 |
| 20260906050603 | 85 | 357 | 2.0 | 5.0 | 0.00 | 0.00 | 0.00 | 36 | 1018.2 |
| 20260906050104 | 84 | 3 | 2.0 | 5.0 | 0.00 | 0.00 | 0.00 | 35 | 1018.2 |
| 20260906045104 | 83 | 336 | 2.0 | 5.0 | 0.00 | 0.00 | 0.00 | 38 | 1018.2 |
| 20260906044603 | 82 | 34 | 1.0 | 2.0 | 0.00 | 0.00 | 0.00 | 38 | 1018.0 |
| 20260906044103 | 81 | 0 | 0.0 | 3.0 | 0.00 | 0.00 | 0.00 | 39 | 1018.0 |
| 20260906043603 | 80 | 308 | 0.0 | 2.0 | 0.00 | 0.00 | 0.00 | 42 | 1017.9 |
| 20260906043103 | 79 | 99 | 0.0 | 3.0 | 0.00 | 0.00 | 0.00 | 43 | 1017.9 |
| 20260906042103 | 78 | 356 | 3.0 | 5.0 | 0.00 | 0.00 | 0.00 | 45 | 1017.8 |
| 20260906041603 | 77 | 338 | 2.0 | 3.0 | 0.00 | 0.00 | 0.00 | 45 | 1017.8 |
| 20260906041103 | 76 | 22 | 3.0 | 5.0 | 0.00 | 0.00 | 0.00 | 45 | 1017.7 |
| 20260906040104 | 75 | 1 | 2.0 | 3.0 | 0.00 | 0.00 | 0.00 | 48 | 1017.7 |
| 20260906035103 | 75 | 35 | 0.0 | 2.0 | 0.00 | 0.00 | 0.00 | 44 | 1017.8 |
| 20260906034604 | 75 | 280 | 2.0 | 2.0 | 0.00 | 0.00 | 0.00 | 45 | 1017.6 |
| 20260906034103 | 75 | 21 | 1.0 | 2.0 | 0.00 | 0.00 | 0.00 | 45 | 1017.6 |
| 20260906033604 | 75 | 312 | 2.0 | 2.0 | 0.00 | 0.00 | 0.00 | 45 | 1017.6 |
| 20260906033103 | 75 | 23 | 3.0 | 5.0 | 0.00 | 0.00 | 0.00 | 45 | 1017.6 |
| 20260906032604 | 75 | 116 | 0.0 | 5.0 | 0.00 | 0.00 | 0.00 | 42 | 1017.6 |
| 20260906032103 | 75 | 243 | 1.0 | 5.0 | 0.00 | 0.00 | 0.00 | 42 | 1017.5 |
| 20260906031603 | 75 | 53 | 1.0 | 3.0 | 0.00 | 0.00 | 0.00 | 42 | 1017.5 |
| 20260906031103 | 75 | 60 | 1.0 | 3.0 | 0.00 | 0.00 | 0.00 | 43 | 1017.5 |
| 20260906030604 | 75 | 21 | 2.0 | 2.0 | 0.00 | 0.00 | 0.00 | 44 | 1017.5 |
| 20260906030105 | 75 | 315 | 1.0 | 3.0 | 0.00 | 0.00 | 0.00 | 44 | 1017.4 |
| 20260906025103 | 75 | 3 | 1.0 | 2.0 | 0.00 | 0.00 | 0.00 | 43 | 1017.3 |
| 20260906024604 | 75 | 22 | 0.0 | 2.0 | 0.00 | 0.00 | 0.00 | 42 | 1017.2 |
| 20260906024103 | 75 | 247 | 0.0 | 1.0 | 0.00 | 0.00 | 0.00 | 41 | 1017.2 |
| 20260906023604 | 76 | 109 | 1.0 | 2.0 | 0.00 | 0.00 | 0.00 | 39 | 1017.1 |
| 20260906023103 | 76 | 288 | 1.0 | 2.0 | 0.00 | 0.00 | 0.00 | 39 | 1017.1 |
| 20260906022603 | 76 | 332 | 3.0 | 5.0 | 0.00 | 0.00 | 0.00 | 38 | 1017.1 |
| 20260906022104 | 76 | 149 | 2.0 | 2.0 | 0.00 | 0.00 | 0.00 | 38 | 1017.2 |
| 20260906021604 | 76 | 240 | 3.0 | 5.0 | 0.00 | 0.00 | 0.00 | 38 | 1017.2 |
| 20260906021103 | 76 | 266 | 2.0 | 5.0 | 0.00 | 0.00 | 0.00 | 38 | 1017.2 |
| 20260906020604 | 76 | 134 | 1.0 | 6.0 | 0.00 | 0.00 | 0.00 | 38 | 1017.2 |
| 20260906015603 | 76 | 243 | 3.0 | 5.0 | 0.00 | 0.00 | 0.00 | 39 | 1017.2 |
| 20260906015104 | 76 | 260 | 5.0 | 6.0 | 0.00 | 0.00 | 0.00 | 40 | 1017.2 |
| 20260906014104 | 76 | 217 | 6.0 | 7.0 | 0.00 | 0.00 | 0.00 | 43 | 1017.2 |
| 20260906013604 | 76 | 270 | 6.0 | 7.0 | 0.00 | 0.00 | 0.00 | 45 | 1017.3 |
| 20260906013104 | 76 | 270 | 6.0 | 7.0 | 0.00 | 0.00 | 0.00 | 46 | 1017.3 |
| 20260906012604 | 75 | 270 | 5.0 | 6.0 | 0.00 | 0.00 | 0.00 | 47 | 1017.3 |
| 20260906012103 | 75 | 270 | 3.0 | 6.0 | 0.00 | 0.00 | 0.00 | 47 | 1017.4 |
| 20260906011604 | 76 | 255 | 4.0 | 6.0 | 0.00 | 0.00 | 0.00 | 46 | 1017.4 |
| 20260906011104 | 76 | 271 | 5.0 | 6.0 | 0.00 | 0.00 | 0.00 | 45 | 1017.4 |
| 20260906010603 | 77 | 241 | 6.0 | 7.0 | 0.00 | 0.00 | 0.00 | 43 | 1017.4 |
| 20260906010103 | 77 | 283 | 6.0 | 6.0 | 0.00 | 0.00 | 0.00 | 42 | 1017.4 |
| 20260906005604 | 76 | 270 | 5.0 | 6.0 | 0.00 | 0.00 | 0.00 | 40 | 1017.4 |
| 20260906004603 | 76 | 311 | 5.0 | 5.0 | 0.00 | 0.00 | 0.00 | 38 | 1017.3 |
| 20260906004104 | 76 | 270 | 3.0 | 5.0 | 0.00 | 0.00 | 0.00 | 38 | 1017.3 |
| 20260906003604 | 76 | 258 | 5.0 | 6.0 | 0.00 | 0.00 | 0.00 | 38 | 1017.3 |
| 20260906003103 | 75 | 259 | 5.0 | 6.0 | 0.00 | 0.00 | 0.00 | 40 | 1017.4 |
| 20260906002603 | 74 | 174 | 1.0 | 2.0 | 0.00 | 0.00 | 0.00 | 40 | 1017.4 |
| 20260906002104 | 75 | 271 | 1.0 | 2.0 | 0.00 | 0.00 | 0.00 | 39 | 1017.4 |
| 20260906001604 | 75 | 213 | 0.0 | 2.0 | 0.00 | 0.00 | 0.00 | 38 | 1017.4 |
| 20260906001103 | 75 | 267 | 0.0 | 2.0 | 0.00 | 0.00 | 0.00 | 38 | 1017.5 |
| 20260906000603 | 74 | 315 | 2.0 | 3.0 | 0.00 | 0.00 | 0.00 | 39 | 1017.5 |
| 20260905235603 | 75 | 284 | 0.0 | 2.0 | 0.00 | 0.00 | 0.00 | 40 | 1017.6 |
| 20260905235103 | 75 | 158 | 0.0 | 2.0 | 0.00 | 0.00 | 0.00 | 39 | 1017.6 |
| 20260905234104 | 76 | 318 | 2.0 | 5.0 | 0.00 | 0.00 | 0.00 | 39 | 1017.6 |
| 20260905233603 | 76 | 252 | 3.0 | 5.0 | 0.00 | 0.00 | 0.00 | 39 | 1017.6 |
| 20260905232603 | 75 | 264 | 7.0 | 7.0 | 0.00 | 0.00 | 0.00 | 44 | 1017.7 |
| 20260905232103 | 75 | 260 | 5.0 | 9.0 | 0.00 | 0.00 | 0.00 | 46 | 1017.8 |
| 20260905231620 | 76 | 274 | 5.0 | 9.0 | 0.00 | 0.00 | 0.00 | 45 | 1017.8 |
| 20260905231121 | 76 | 270 | 5.0 | 7.0 | 0.00 | 0.00 | 0.00 | 45 | 1017.9 |
| 20260905230621 | 76 | 240 | 5.0 | 6.0 | 0.00 | 0.00 | 0.00 | 41 | 1017.9 |
| 20260905230104 | 76 | 327 | 1.0 | 3.0 | 0.00 | 0.00 | 0.00 | 42 | 1017.9 |
| 20260905225603 | 76 | 249 | 0.0 | 3.0 | 0.00 | 0.00 | 0.00 | 42 | 1018.0 |
| 20260905224604 | 77 | 66 | 2.0 | 5.0 | 0.00 | 0.00 | 0.00 | 38 | 1018.0 |
| 20260905224103 | 77 | 49 | 3.0 | 5.0 | 0.00 | 0.00 | 0.00 | 37 | 1018.0 |
| 20260905223603 | 78 | 17 | 5.0 | 7.0 | 0.00 | 0.00 | 0.00 | 37 | 1018.0 |
| 20260905223103 | 78 | 21 | 3.0 | 7.0 | 0.00 | 0.00 | 0.00 | 37 | 1018.0 |
| 20260905222603 | 78 | 204 | 6.0 | 9.0 | 0.00 | 0.00 | 0.00 | 37 | 1018.0 |
| 20260905222103 | 78 | 98 | 5.0 | 8.0 | 0.00 | 0.00 | 0.00 | 37 | 1017.9 |
| 20260905221603 | 78 | 25 | 5.0 | 7.0 | 0.00 | 0.00 | 0.00 | 37 | 1017.9 |
| 20260905221104 | 78 | 43 | 3.0 | 8.0 | 0.00 | 0.00 | 0.00 | 36 | 1018.0 |
| 20260905220604 | 78 | 21 | 5.0 | 9.0 | 0.00 | 0.00 | 0.00 | 36 | 1018.0 |
| 20260905220105 | 78 | 24 | 6.0 | 10.0 | 0.00 | 0.00 | 0.00 | 36 | 1018.0 |
| 20260905215604 | 78 | 131 | 5.0 | 7.0 | 0.00 | 0.00 | 0.00 | 36 | 1018.0 |
| 20260905215103 | 78 | 104 | 5.0 | 6.0 | 0.00 | 0.00 | 0.00 | 35 | 1018.0 |
| 20260905214605 | 78 | 40 | 4.0 | 7.0 | 0.00 | 0.00 | 0.00 | 35 | 1018.2 |
| 20260905214104 | 78 | 89 | 3.0 | 6.0 | 0.00 | 0.00 | 0.00 | 35 | 1018.2 |
| 20260905213603 | 78 | 0 | 3.0 | 8.0 | 0.00 | 0.00 | 0.00 | 35 | 1018.1 |
| 20260905213104 | 78 | 102 | 1.0 | 6.0 | 0.00 | 0.00 | 0.00 | 35 | 1018.1 |
| 20260905211604 | 77 | 52 | 2.0 | 5.0 | 0.00 | 0.00 | 0.00 | 35 | 1018.2 |
| 20260905211104 | 77 | 286 | 4.0 | 6.0 | 0.00 | 0.00 | 0.00 | 35 | 1018.2 |
| 20260905210603 | 77 | 280 | 2.0 | 7.0 | 0.00 | 0.00 | 0.00 | 35 | 1018.2 |
| 20260905210104 | 78 | 2 | 3.0 | 6.0 | 0.00 | 0.00 | 0.00 | 35 | 1018.2 |
| 20260905205603 | 78 | 33 | 3.0 | 6.0 | 0.00 | 0.00 | 0.00 | 36 | 1018.1 |
| 20260905205104 | 78 | 71 | 3.0 | 6.0 | 0.00 | 0.00 | 0.00 | 36 | 1018.1 |
| 20260905204604 | 78 | 7 | 4.0 | 5.0 | 0.00 | 0.00 | 0.00 | 36 | 1018.1 |
| 20260905204104 | 78 | 275 | 3.0 | 7.0 | 0.00 | 0.00 | 0.00 | 36 | 1018.1 |
| 20260905203604 | 78 | 27 | 5.0 | 8.0 | 0.00 | 0.00 | 0.00 | 36 | 1018.0 |
| 20260905203103 | 78 | 31 | 4.0 | 8.0 | 0.00 | 0.00 | 0.00 | 37 | 1018.0 |
| 20260905202103 | 77 | 291 | 4.0 | 6.0 | 0.00 | 0.00 | 0.00 | 37 | 1018.2 |
| 20260905201604 | 77 | 270 | 5.0 | 6.0 | 0.00 | 0.00 | 0.00 | 39 | 1018.2 |
| 20260905201103 | 77 | 262 | 5.0 | 6.0 | 0.00 | 0.00 | 0.00 | 40 | 1018.1 |
| 20260905200604 | 78 | 265 | 4.0 | 7.0 | 0.00 | 0.00 | 0.00 | 37 | 1018.1 |
| 20260905200104 | 78 | 270 | 5.0 | 7.0 | 0.00 | 0.00 | 0.00 | 35 | 1018.1 |
| 20260905195604 | 78 | 329 | 9.0 | 13.0 | 0.00 | 0.00 | 0.00 | 35 | 1018.2 |
| 20260905195104 | 77 | 349 | 3.0 | 6.0 | 0.00 | 0.00 | 0.00 | 37 | 1018.2 |
| 20260905194603 | 77 | 13 | 5.0 | 8.0 | 0.00 | 0.00 | 0.00 | 39 | 1018.3 |
| 20260905194104 | 77 | 11 | 2.0 | 7.0 | 0.00 | 0.00 | 0.00 | 41 | 1018.3 |
| 20260905193604 | 77 | 354 | 3.0 | 7.0 | 0.00 | 0.00 | 0.00 | 42 | 1018.3 |
| 20260905192604 | 77 | 5 | 3.0 | 6.0 | 0.00 | 0.00 | 0.00 | 44 | 1018.3 |
| 20260905192104 | 77 | 75 | 3.0 | 5.0 | 0.00 | 0.00 | 0.00 | 46 | 1018.4 |
| 20260905191603 | 77 | 73 | 4.0 | 6.0 | 0.00 | 0.00 | 0.00 | 42 | 1018.4 |
| 20260905191104 | 77 | 22 | 3.0 | 6.0 | 0.00 | 0.00 | 0.00 | 43 | 1018.5 |
| 20260905190604 | 76 | 270 | 3.0 | 6.0 | 0.00 | 0.00 | 0.00 | 47 | 1018.5 |
| 20260905190104 | 76 | 257 | 5.0 | 6.0 | 0.00 | 0.00 | 0.00 | 49 | 1018.5 |
| 20260905185103 | 76 | 248 | 3.0 | 3.0 | 0.00 | 0.00 | 0.00 | 48 | 1018.3 |
| 20260905184603 | 76 | 359 | 2.0 | 3.0 | 0.00 | 0.00 | 0.00 | 50 | 1018.3 |
| 20260905184104 | 76 | 270 | 0.0 | 2.0 | 0.00 | 0.00 | 0.00 | 49 | 1018.3 |
| 20260905183604 | 77 | 69 | 2.0 | 3.0 | 0.00 | 0.00 | 0.00 | 48 | 1018.2 |
| 20260905182104 | 76 | 258 | 2.0 | 3.0 | 0.00 | 0.00 | 0.00 | 51 | 1018.1 |
| 20260905181604 | 76 | 317 | 3.0 | 5.0 | 0.00 | 0.00 | 0.00 | 51 | 1018.1 |
| 20260905181104 | 76 | 7 | 3.0 | 5.0 | 0.00 | 0.00 | 0.00 | 52 | 1018.0 |
| 20260905180604 | 76 | 53 | 3.0 | 5.0 | 0.00 | 0.00 | 0.00 | 52 | 1018.0 |
| 20260905180104 | 76 | 2 | 2.0 | 6.0 | 0.00 | 0.00 | 0.00 | 52 | 1018.0 |
| 20260905175604 | 76 | 46 | 2.0 | 5.0 | 0.00 | 0.00 | 0.00 | 52 | 1018.1 |
| 20260905175103 | 76 | 249 | 1.0 | 5.0 | 0.00 | 0.00 | 0.00 | 52 | 1018.1 |
| 20260905174603 | 76 | 268 | 2.0 | 5.0 | 0.00 | 0.00 | 0.00 | 52 | 1017.9 |
| 20260905174103 | 76 | 316 | 2.0 | 3.0 | 0.00 | 0.00 | 0.00 | 52 | 1017.9 |
| 20260905173104 | 76 | 119 | 3.0 | 6.0 | 0.00 | 0.00 | 0.00 | 52 | 1017.8 |
| 20260905172604 | 76 | 98 | 3.0 | 5.0 | 0.00 | 0.00 | 0.00 | 55 | 1017.8 |
| 20260905172103 | 77 | 112 | 2.0 | 5.0 | 0.00 | 0.00 | 0.00 | 54 | 1017.8 |
| 20260905171603 | 77 | 47 | 2.0 | 5.0 | 0.00 | 0.00 | 0.00 | 55 | 1017.8 |
| 20260905171104 | 77 | 97 | 3.0 | 3.0 | 0.00 | 0.00 | 0.00 | 55 | 1017.8 |
| 20260905170604 | 77 | 328 | 2.0 | 3.0 | 0.00 | 0.00 | 0.00 | 55 | 1017.8 |
| 20260905170104 | 77 | 52 | 2.0 | 6.0 | 0.00 | 0.00 | 0.00 | 55 | 1017.8 |
| 20260905165603 | 78 | 165 | 0.0 | 2.0 | 0.00 | 0.00 | 0.00 | 54 | 1017.9 |
| 20260905165103 | 78 | 65 | 1.0 | 3.0 | 0.00 | 0.00 | 0.00 | 53 | 1017.9 |
| 20260905164603 | 78 | 309 | 2.0 | 7.0 | 0.00 | 0.00 | 0.00 | 53 | 1017.8 |
| 20260905164103 | 78 | 22 | 3.0 | 6.0 | 0.00 | 0.00 | 0.00 | 53 | 1017.8 |
| 20260905163603 | 79 | 359 | 3.0 | 3.0 | 0.00 | 0.00 | 0.00 | 52 | 1017.7 |
| 20260905163104 | 79 | 68 | 3.0 | 6.0 | 0.00 | 0.00 | 0.00 | 52 | 1017.7 |
| 20260905162604 | 79 | 356 | 3.0 | 3.0 | 0.00 | 0.00 | 0.00 | 52 | 1017.7 |
| 20260905162104 | 80 | 22 | 4.0 | 6.0 | 0.00 | 0.00 | 0.00 | 51 | 1017.8 |
| 20260905161603 | 80 | 76 | 2.0 | 5.0 | 0.00 | 0.00 | 0.00 | 51 | 1017.8 |
| 20260905161104 | 80 | 58 | 3.0 | 7.0 | 0.00 | 0.00 | 0.00 | 50 | 1017.9 |
| 20260905160603 | 80 | 51 | 5.0 | 8.0 | 0.00 | 0.00 | 0.00 | 50 | 1017.9 |
| 20260905160104 | 80 | 333 | 6.0 | 9.0 | 0.00 | 0.00 | 0.00 | 50 | 1017.9 |
| 20260905155103 | 81 | 68 | 6.0 | 9.0 | 0.00 | 0.00 | 0.00 | 48 | 1017.8 |
| 20260905154603 | 81 | 69 | 7.0 | 10.0 | 0.00 | 0.00 | 0.00 | 47 | 1018.0 |
| 20260905154103 | 81 | 90 | 7.0 | 13.0 | 0.00 | 0.00 | 0.00 | 46 | 1018.0 |
| 20260905153604 | 81 | 79 | 7.0 | 9.0 | 0.00 | 0.00 | 0.00 | 46 | 1017.9 |
| 20260905152603 | 82 | 39 | 6.0 | 9.0 | 0.00 | 0.00 | 0.00 | 45 | 1017.9 |
| 20260905152103 | 82 | 56 | 9.0 | 13.0 | 0.00 | 0.00 | 0.00 | 45 | 1018.0 |
| 20260905151604 | 82 | 45 | 9.0 | 15.0 | 0.00 | 0.00 | 0.00 | 45 | 1018.0 |
| 20260905151104 | 82 | 55 | 9.0 | 13.0 | 0.00 | 0.00 | 0.00 | 44 | 1017.9 |
| 20260905150604 | 83 | 87 | 8.0 | 9.0 | 0.00 | 0.00 | 0.00 | 44 | 1017.9 |
| 20260905150104 | 83 | 63 | 8.0 | 13.0 | 0.00 | 0.00 | 0.00 | 43 | 1017.9 |
| 20260905145103 | 83 | 89 | 8.0 | 10.0 | 0.00 | 0.00 | 0.00 | 43 | 1017.9 |
| 20260905143604 | 83 | 40 | 9.0 | 10.0 | 0.00 | 0.00 | 0.00 | 43 | 1017.8 |
| 20260905143104 | 83 | 70 | 10.0 | 13.0 | 0.00 | 0.00 | 0.00 | 43 | 1017.8 |
| 20260905142604 | 84 | 33 | 10.0 | 14.0 | 0.00 | 0.00 | 0.00 | 42 | 1017.8 |
| 20260905142104 | 84 | 55 | 7.0 | 14.0 | 0.00 | 0.00 | 0.00 | 42 | 1017.9 |
| 20260905141604 | 84 | 81 | 9.0 | 13.0 | 0.00 | 0.00 | 0.00 | 42 | 1017.9 |
| 20260905141103 | 84 | 62 | 7.0 | 12.0 | 0.00 | 0.00 | 0.00 | 42 | 1017.9 |
| 20260905140604 | 84 | 63 | 10.0 | 13.0 | 0.00 | 0.00 | 0.00 | 41 | 1017.9 |
| 20260905140106 | 84 | 86 | 8.0 | 13.0 | 0.00 | 0.00 | 0.00 | 41 | 1017.9 |
| 20260905135604 | 85 | 67 | 10.0 | 14.0 | 0.00 | 0.00 | 0.00 | 40 | 1017.9 |
| 20260905134603 | 85 | 106 | 7.0 | 10.0 | 0.00 | 0.00 | 0.00 | 40 | 1017.9 |
| 20260905134105 | 85 | 225 | 6.0 | 9.0 | 0.00 | 0.00 | 0.00 | 40 | 1017.9 |
| 20260905133603 | 85 | 101 | 7.0 | 13.0 | 0.00 | 0.00 | 0.00 | 41 | 1018.0 |
| 20260905132603 | 85 | 0 | 6.0 | 13.0 | 0.00 | 0.00 | 0.00 | 40 | 1018.0 |
| 20260905132104 | 85 | 56 | 6.0 | 10.0 | 0.00 | 0.00 | 0.00 | 39 | 1018.0 |
| 20260905131103 | 85 | 93 | 7.0 | 14.0 | 0.00 | 0.00 | 0.00 | 39 | 1018.0 |
| 20260905130604 | 84 | 58 | 10.0 | 13.0 | 0.00 | 0.00 | 0.00 | 42 | 1018.0 |
| 20260905130104 | 85 | 28 | 10.0 | 13.0 | 0.00 | 0.00 | 0.00 | 41 | 1018.0 |
| 20260905125603 | 85 | 47 | 13.0 | 16.0 | 0.00 | 0.00 | 0.00 | 41 | 1018.0 |
| 20260905125104 | 86 | 42 | 10.0 | 14.0 | 0.00 | 0.00 | 0.00 | 40 | 1018.0 |
| 20260905124604 | 85 | 53 | 13.0 | 16.0 | 0.00 | 0.00 | 0.00 | 42 | 1018.0 |
| 20260905124104 | 85 | 55 | 13.0 | 16.0 | 0.00 | 0.00 | 0.00 | 42 | 1018.0 |
| 20260905123604 | 85 | 55 | 12.0 | 16.0 | 0.00 | 0.00 | 0.00 | 42 | 1018.2 |
| 20260905123104 | 85 | 68 | 14.0 | 17.0 | 0.00 | 0.00 | 0.00 | 43 | 1018.2 |
| 20260905122603 | 85 | 60 | 12.0 | 15.0 | 0.00 | 0.00 | 0.00 | 43 | 1018.2 |
| 20260905122104 | 85 | 98 | 9.0 | 17.0 | 0.00 | 0.00 | 0.00 | 42 | 1018.3 |
| 20260905121604 | 86 | 59 | 10.0 | 14.0 | 0.00 | 0.00 | 0.00 | 40 | 1018.3 |
| 20260905120106 | 85 | 13 | 12.0 | 16.0 | 0.00 | 0.00 | 0.00 | 40 | 1018.2 |
| 20260905115604 | 85 | 101 | 16.0 | 20.0 | 0.00 | 0.00 | 0.00 | 41 | 1018.3 |
| 20260905115104 | 85 | 90 | 10.0 | 15.0 | 0.00 | 0.00 | 0.00 | 41 | 1018.3 |
| 20260905114603 | 85 | 352 | 10.0 | 16.0 | 0.00 | 0.00 | 0.00 | 39 | 1018.2 |
| 20260905114104 | 86 | 40 | 12.0 | 18.0 | 0.00 | 0.00 | 0.00 | 37 | 1018.2 |
| 20260905113603 | 85 | 94 | 17.0 | 21.0 | 0.00 | 0.00 | 0.00 | 40 | 1018.4 |
| 20260905112604 | 85 | 77 | 12.0 | 16.0 | 0.00 | 0.00 | 0.00 | 38 | 1018.4 |
| 20260905112104 | 86 | 75 | 11.0 | 15.0 | 0.00 | 0.00 | 0.00 | 39 | 1018.6 |
| 20260905111604 | 86 | 107 | 12.0 | 18.0 | 0.00 | 0.00 | 0.00 | 38 | 1018.6 |
| 20260905111104 | 86 | 41 | 14.0 | 18.0 | 0.00 | 0.00 | 0.00 | 36 | 1018.4 |
| 20260905110604 | 85 | 71 | 13.0 | 20.0 | 0.00 | 0.00 | 0.00 | 38 | 1018.4 |
| 20260905110104 | 85 | 69 | 14.0 | 20.0 | 0.00 | 0.00 | 0.00 | 41 | 1018.4 |
| 20260905105603 | 85 | 81 | 16.0 | 21.0 | 0.00 | 0.00 | 0.00 | 40 | 1018.4 |
| 20260905105104 | 85 | 58 | 16.0 | 21.0 | 0.00 | 0.00 | 0.00 | 38 | 1018.4 |
| 20260905104604 | 85 | 73 | 15.0 | 22.0 | 0.00 | 0.00 | 0.00 | 37 | 1018.3 |
| 20260905103604 | 84 | 72 | 17.0 | 22.0 | 0.00 | 0.00 | 0.00 | 41 | 1018.2 |
| 20260905103104 | 85 | 78 | 17.0 | 21.0 | 0.00 | 0.00 | 0.00 | 40 | 1018.2 |
| 20260905102603 | 85 | 56 | 17.0 | 21.0 | 0.00 | 0.00 | 0.00 | 37 | 1018.2 |
| 20260905102104 | 85 | 75 | 14.0 | 18.0 | 0.00 | 0.00 | 0.00 | 40 | 1018.3 |
| 20260905101603 | 85 | 60 | 14.0 | 24.0 | 0.00 | 0.00 | 0.00 | 41 | 1018.3 |
| 20260905101103 | 85 | 72 | 19.0 | 22.0 | 0.00 | 0.00 | 0.00 | 40 | 1018.1 |
| 20260905100603 | 85 | 87 | 15.0 | 18.0 | 0.00 | 0.00 | 0.00 | 41 | 1018.1 |
| 20260905100104 | 84 | 47 | 16.0 | 25.0 | 0.00 | 0.00 | 0.00 | 44 | 1018.1 |
| 20260905095604 | 84 | 46 | 19.0 | 22.0 | 0.00 | 0.00 | 0.00 | 43 | 1017.9 |
| 20260905095104 | 85 | 68 | 17.0 | 22.0 | 0.00 | 0.00 | 0.00 | 41 | 1017.9 |
| 20260905094604 | 84 | 62 | 16.0 | 21.0 | 0.00 | 0.00 | 0.00 | 42 | 1018.0 |
| 20260905094103 | 84 | 63 | 18.0 | 24.0 | 0.00 | 0.00 | 0.00 | 43 | 1018.0 |
| 20260905093604 | 84 | 66 | 21.0 | 24.0 | 0.00 | 0.00 | 0.00 | 44 | 1018.0 |
| 20260905093103 | 84 | 68 | 17.0 | 22.0 | 0.00 | 0.00 | 0.00 | 45 | 1018.0 |
| 20260905092604 | 84 | 66 | 16.0 | 24.0 | 0.00 | 0.00 | 0.00 | 46 | 1018.0 |
| 20260905092104 | 84 | 68 | 19.0 | 24.0 | 0.00 | 0.00 | 0.00 | 46 | 1018.0 |
| 20260905091604 | 83 | 77 | 18.0 | 26.0 | 0.00 | 0.00 | 0.00 | 48 | 1018.0 |
| 20260905091104 | 83 | 47 | 18.0 | 30.0 | 0.00 | 0.00 | 0.00 | 47 | 1017.8 |